sensor_id;sensor_type;location;lat;lon;timestamp;pressure;altitude;pressure_sealevel;temperature;humidity
59767;BME280;46248;58.364;25.582;2022-10-16T00:00:44;100635.28;;;9.79;84.80
59767;BME280;46248;58.364;25.582;2022-10-16T00:04:08;100648.91;;;9.86;85.24
59767;BME280;46248;58.364;25.582;2022-10-16T00:07:30;100652.41;;;9.86;85.24
59767;BME280;46248;58.364;25.582;2022-10-16T00:10:52;100623.25;;;9.75;85.31
59767;BME280;46248;58.364;25.582;2022-10-16T00:14:14;100649.69;;;9.88;85.06
59767;BME280;46248;58.364;25.582;2022-10-16T00:17:36;100639.59;;;9.80;84.97
59767;BME280;46248;58.364;25.582;2022-10-16T00:21:03;100647.34;;;9.82;85.23
59767;BME280;46248;58.364;25.582;2022-10-16T00:24:26;100653.66;;;9.78;85.32
59767;BME280;46248;58.364;25.582;2022-10-16T00:27:48;100629.75;;;9.67;85.42
59767;BME280;46248;58.364;25.582;2022-10-16T00:31:11;100645.81;;;9.78;85.56
59767;BME280;46248;58.364;25.582;2022-10-16T00:34:33;100645.03;;;9.76;85.77
59767;BME280;46248;58.364;25.582;2022-10-16T00:37:56;100626.44;;;9.63;85.89
59767;BME280;46248;58.364;25.582;2022-10-16T00:41:20;100640.78;;;9.73;86.30
59767;BME280;46248;58.364;25.582;2022-10-16T00:44:46;100644.88;;;9.79;86.30
59767;BME280;46248;58.364;25.582;2022-10-16T00:48:11;100646.53;;;9.81;86.35
59767;BME280;46248;58.364;25.582;2022-10-16T00:51:37;100630.97;;;9.78;86.01
59767;BME280;46248;58.364;25.582;2022-10-16T00:55:01;100639.38;;;9.85;86.10
59767;BME280;46248;58.364;25.582;2022-10-16T00:58:24;100628.91;;;9.85;85.90
59767;BME280;46248;58.364;25.582;2022-10-16T01:01:46;100627.97;;;9.86;86.07
59767;BME280;46248;58.364;25.582;2022-10-16T01:05:08;100628.84;;;9.86;86.27
59767;BME280;46248;58.364;25.582;2022-10-16T01:08:35;100628.84;;;9.86;86.53
59767;BME280;46248;58.364;25.582;2022-10-16T01:12:07;100626.44;;;9.82;86.57
59767;BME280;46248;58.364;25.582;2022-10-16T01:15:34;100623.91;;;9.80;86.59
59767;BME280;46248;58.364;25.582;2022-10-16T01:19:09;100631.63;;;9.83;86.96
59767;BME280;46248;58.364;25.582;2022-10-16T01:22:38;100626.53;;;9.80;86.57
59767;BME280;46248;58.364;25.582;2022-10-16T01:26:17;100628.84;;;9.86;86.76
59767;BME280;46248;58.364;25.582;2022-10-16T01:29:50;100625.38;;;9.86;86.96
59767;BME280;46248;58.364;25.582;2022-10-16T01:33:17;100621.84;;;9.87;86.98
59767;BME280;46248;58.364;25.582;2022-10-16T01:36:42;100624.47;;;9.87;87.14
59767;BME280;46248;58.364;25.582;2022-10-16T01:40:11;100573.31;;;9.62;86.72
59767;BME280;46248;58.364;25.582;2022-10-16T01:43:36;100605.22;;;9.88;87.10
59767;BME280;46248;58.364;25.582;2022-10-16T01:47:02;100603.47;;;9.89;87.54
59767;BME280;46248;58.364;25.582;2022-10-16T01:50:26;100589.97;;;9.79;87.49
59767;BME280;46248;58.364;25.582;2022-10-16T01:53:53;100599.84;;;9.91;87.59
59767;BME280;46248;58.364;25.582;2022-10-16T01:57:16;100606.72;;;9.94;87.44
59767;BME280;46248;58.364;25.582;2022-10-16T02:00:42;100596.25;;;9.94;87.17
59767;BME280;46248;58.364;25.582;2022-10-16T02:04:16;100609.34;;;9.94;87.56
59767;BME280;46248;58.364;25.582;2022-10-16T02:07:40;100600.09;;;9.86;87.37
59767;BME280;46248;58.364;25.582;2022-10-16T02:11:03;100598.94;;;9.92;87.37
59767;BME280;46248;58.364;25.582;2022-10-16T02:14:26;100584.25;;;9.90;87.28
59767;BME280;46248;58.364;25.582;2022-10-16T02:17:48;100596.31;;;9.92;87.58
59767;BME280;46248;58.364;25.582;2022-10-16T02:21:15;100589.38;;;9.91;87.98
59767;BME280;46248;58.364;25.582;2022-10-16T02:24:44;100583.97;;;9.96;87.64
59767;BME280;46248;58.364;25.582;2022-10-16T02:28:15;100582.19;;;9.96;87.68
59767;BME280;46248;58.364;25.582;2022-10-16T02:31:41;100571.22;;;9.88;87.85
59767;BME280;46248;58.364;25.582;2022-10-16T02:35:06;100581.34;;;9.96;87.53
59767;BME280;46248;58.364;25.582;2022-10-16T02:38:31;100577.72;;;9.98;87.64
59767;BME280;46248;58.364;25.582;2022-10-16T02:41:53;100574.94;;;10.01;88.04
59767;BME280;46248;58.364;25.582;2022-10-16T02:45:15;100568.72;;;10.04;88.06
59767;BME280;46248;58.364;25.582;2022-10-16T02:48:37;100555.63;;;10.04;88.23
59767;BME280;46248;58.364;25.582;2022-10-16T02:51:59;100561.56;;;10.07;87.89
59767;BME280;46248;58.364;25.582;2022-10-16T02:55:22;100532.84;;;9.89;87.73
59767;BME280;46248;58.364;25.582;2022-10-16T02:58:45;100563.19;;;10.10;87.90
59767;BME280;46248;58.364;25.582;2022-10-16T03:02:07;100563.97;;;10.12;87.60
59767;BME280;46248;58.364;25.582;2022-10-16T03:05:29;100543.13;;;10.11;87.83
59767;BME280;46248;58.364;25.582;2022-10-16T03:08:51;100550.69;;;10.17;87.95
59767;BME280;46248;58.364;25.582;2022-10-16T03:12:14;100557.50;;;10.19;87.95
59767;BME280;46248;58.364;25.582;2022-10-16T03:15:36;100554.84;;;10.21;87.87
59767;BME280;46248;58.364;25.582;2022-10-16T03:18:57;100552.06;;;10.24;87.76
59767;BME280;46248;58.364;25.582;2022-10-16T03:22:19;100545.16;;;10.23;87.96
59767;BME280;46248;58.364;25.582;2022-10-16T03:25:41;100555.41;;;10.27;87.73
59767;BME280;46248;58.364;25.582;2022-10-16T03:29:05;100551.09;;;10.26;88.15
59767;BME280;46248;58.364;25.582;2022-10-16T03:32:26;100552.84;;;10.26;88.54
59767;BME280;46248;58.364;25.582;2022-10-16T03:35:56;100544.09;;;10.27;88.88
59767;BME280;46248;58.364;25.582;2022-10-16T03:44:07;100536.66;;;10.18;89.76
59767;BME280;46248;58.364;25.582;2022-10-16T03:47:29;100555.81;;;10.18;89.55
59767;BME280;46248;58.364;25.582;2022-10-16T03:50:53;100564.81;;;10.13;89.97
59767;BME280;46248;58.364;25.582;2022-10-16T03:54:15;100567.22;;;10.17;90.08
59767;BME280;46248;58.364;25.582;2022-10-16T03:57:37;100549.41;;;10.06;90.05
59767;BME280;46248;58.364;25.582;2022-10-16T04:01:01;100567.28;;;10.16;90.62
59767;BME280;46248;58.364;25.582;2022-10-16T04:04:23;100534.25;;;9.96;90.33
59767;BME280;46248;58.364;25.582;2022-10-16T04:07:45;100555.34;;;10.10;90.67
59767;BME280;46248;58.364;25.582;2022-10-16T04:14:32;100553.50;;;10.12;91.25
59767;BME280;46248;58.364;25.582;2022-10-16T04:17:56;100557.91;;;10.12;91.48
59767;BME280;46248;58.364;25.582;2022-10-16T04:21:18;100526.41;;;9.96;91.93
59767;BME280;46248;58.364;25.582;2022-10-16T04:24:40;100550.06;;;10.12;92.17
59767;BME280;46248;58.364;25.582;2022-10-16T04:28:03;100539.03;;;10.05;92.41
59767;BME280;46248;58.364;25.582;2022-10-16T04:31:30;100544.81;;;10.12;92.58
59767;BME280;46248;58.364;25.582;2022-10-16T04:34:53;100518.63;;;9.94;92.83
59767;BME280;46248;58.364;25.582;2022-10-16T04:38:15;100557.13;;;10.09;92.85
59767;BME280;46248;58.364;25.582;2022-10-16T04:41:37;100549.22;;;10.11;93.05
59767;BME280;46248;58.364;25.582;2022-10-16T04:44:59;100543.13;;;10.11;93.34
59767;BME280;46248;58.364;25.582;2022-10-16T04:48:21;100561.34;;;10.12;93.32
59767;BME280;46248;58.364;25.582;2022-10-16T04:51:45;100546.59;;;10.11;93.51
59767;BME280;46248;58.364;25.582;2022-10-16T04:55:07;100555.34;;;10.10;94.03
59767;BME280;46248;58.364;25.582;2022-10-16T04:58:29;100563.13;;;10.12;93.97
59767;BME280;46248;58.364;25.582;2022-10-16T05:01:51;100560.44;;;10.13;93.83
59767;BME280;46248;58.364;25.582;2022-10-16T05:05:25;100536.50;;;10.03;93.69
59767;BME280;46248;58.364;25.582;2022-10-16T05:08:50;100542.41;;;10.07;94.27
59767;BME280;46248;58.364;25.582;2022-10-16T06:11:54;100586.38;;;10.54;94.44
59767;BME280;46248;58.364;25.582;2022-10-16T06:15:15;100586.22;;;10.57;94.53
59767;BME280;46248;58.364;25.582;2022-10-16T06:18:38;100591.38;;;10.59;94.28
59767;BME280;46248;58.364;25.582;2022-10-16T06:22:00;100592.25;;;10.59;94.22
59767;BME280;46248;58.364;25.582;2022-10-16T06:25:23;100595.59;;;10.61;94.61
59767;BME280;46248;58.364;25.582;2022-10-16T06:28:46;100594.63;;;10.64;94.81
59767;BME280;46248;58.364;25.582;2022-10-16T06:32:08;100595.53;;;10.63;94.51
59767;BME280;46248;58.364;25.582;2022-10-16T06:35:30;100597.75;;;10.70;94.78
59767;BME280;46248;58.364;25.582;2022-10-16T06:38:53;100589.84;;;10.72;94.60
59767;BME280;46248;58.364;25.582;2022-10-16T06:42:15;100599.84;;;10.81;94.75
59767;BME280;46248;58.364;25.582;2022-10-16T06:45:38;100596.28;;;10.82;94.36
59767;BME280;46248;58.364;25.582;2022-10-16T06:49:00;100606.16;;;10.94;94.25
59767;BME280;46248;58.364;25.582;2022-10-16T06:52:22;100606.75;;;10.99;94.23
59767;BME280;46248;58.364;25.582;2022-10-16T06:55:45;100610.06;;;11.03;93.90
59767;BME280;46248;58.364;25.582;2022-10-16T06:59:07;100606.44;;;11.06;93.99
59767;BME280;46248;58.364;25.582;2022-10-16T07:02:30;100584.88;;;11.00;93.72
59767;BME280;46248;58.364;25.582;2022-10-16T07:05:52;100608.75;;;11.12;94.04
59767;BME280;46248;58.364;25.582;2022-10-16T07:09:14;100599.94;;;11.13;93.85
59767;BME280;46248;58.364;25.582;2022-10-16T07:12:36;100608.44;;;11.18;93.50
59767;BME280;46248;58.364;25.582;2022-10-16T07:16:04;100604.03;;;11.18;94.04
59767;BME280;46248;58.364;25.582;2022-10-16T07:19:27;100606.50;;;11.21;93.83
59767;BME280;46248;58.364;25.582;2022-10-16T07:22:57;100597.09;;;11.17;94.16
59767;BME280;46248;58.364;25.582;2022-10-16T07:30:35;100602.81;;;11.26;94.41
59767;BME280;46248;58.364;25.582;2022-10-16T07:33:58;100603.47;;;11.29;94.38
59767;BME280;46248;58.364;25.582;2022-10-16T07:37:21;100606.84;;;11.31;94.37
59767;BME280;46248;58.364;25.582;2022-10-16T07:40:44;100590.44;;;11.28;94.34
59767;BME280;46248;58.364;25.582;2022-10-16T07:44:06;100607.63;;;11.33;94.41
59767;BME280;46248;58.364;25.582;2022-10-16T07:47:28;100612.78;;;11.35;94.63
59767;BME280;46248;58.364;25.582;2022-10-16T07:50:56;100607.38;;;11.38;94.54
59767;BME280;46248;58.364;25.582;2022-10-16T07:54:19;100612.53;;;11.39;94.77
59767;BME280;46248;58.364;25.582;2022-10-16T07:57:41;100616.16;;;11.37;95.05
59767;BME280;46248;58.364;25.582;2022-10-16T08:01:05;100608.72;;;11.29;95.02
59767;BME280;46248;58.364;25.582;2022-10-16T08:04:28;100614.31;;;11.39;95.16
59767;BME280;46248;58.364;25.582;2022-10-16T08:07:50;100627.34;;;11.40;95.54
59767;BME280;46248;58.364;25.582;2022-10-16T08:11:15;100617.56;;;11.44;95.53
59767;BME280;46248;58.364;25.582;2022-10-16T08:14:38;100622.78;;;11.44;95.25
59767;BME280;46248;58.364;25.582;2022-10-16T08:18:05;100620.91;;;11.46;95.61
59767;BME280;46248;58.364;25.582;2022-10-16T08:21:27;100638.19;;;11.50;95.62
59767;BME280;46248;58.364;25.582;2022-10-16T08:24:49;100636.25;;;11.54;95.99
59767;BME280;46248;58.364;25.582;2022-10-16T08:28:12;100636.84;;;11.59;95.95
59767;BME280;46248;58.364;25.582;2022-10-16T08:31:33;100634.75;;;11.65;95.83
59767;BME280;46248;58.364;25.582;2022-10-16T08:34:55;100628.50;;;11.68;95.58
59767;BME280;46248;58.364;25.582;2022-10-16T08:38:17;100636.28;;;11.69;94.77
59767;BME280;46248;58.364;25.582;2022-10-16T08:45:56;100642.53;;;11.83;94.55
59767;BME280;46248;58.364;25.582;2022-10-16T08:49:20;100644.13;;;11.87;94.04
59767;BME280;46248;58.364;25.582;2022-10-16T08:52:46;100650.09;;;11.89;94.08
59767;BME280;46248;58.364;25.582;2022-10-16T08:56:08;100653.59;;;11.89;94.12
59767;BME280;46248;58.364;25.582;2022-10-16T08:59:30;100649.09;;;11.91;94.15
59767;BME280;46248;58.364;25.582;2022-10-16T09:03:00;100642.84;;;11.94;94.01
59767;BME280;46248;58.364;25.582;2022-10-16T09:06:31;100646.22;;;11.96;93.86
59767;BME280;46248;58.364;25.582;2022-10-16T09:10:09;100642.94;;;11.93;93.87
59767;BME280;46248;58.364;25.582;2022-10-16T09:13:43;100618.94;;;11.83;93.51
59767;BME280;46248;58.364;25.582;2022-10-16T09:17:22;100639.44;;;11.92;94.04
59767;BME280;46248;58.364;25.582;2022-10-16T09:20:55;100595.41;;;11.65;93.78
59767;BME280;46248;58.364;25.582;2022-10-16T09:24:24;100639.44;;;11.92;93.66
59767;BME280;46248;58.364;25.582;2022-10-16T09:27:52;100633.13;;;11.96;93.64
59767;BME280;46248;58.364;25.582;2022-10-16T09:31:18;100634.56;;;12.02;93.78
59767;BME280;46248;58.364;25.582;2022-10-16T09:34:46;100623.91;;;12.05;93.65
59767;BME280;46248;58.364;25.582;2022-10-16T09:38:24;100637.16;;;12.18;93.18
59767;BME280;46248;58.364;25.582;2022-10-16T09:41:46;100613.63;;;12.16;93.01
59767;BME280;46248;58.364;25.582;2022-10-16T09:45:20;100628.06;;;12.39;92.77
59767;BME280;46248;58.364;25.582;2022-10-16T09:48:47;100623.25;;;12.47;92.19
59767;BME280;46248;58.364;25.582;2022-10-16T09:52:12;100621.59;;;12.60;91.79
59767;BME280;46248;58.364;25.582;2022-10-16T09:55:36;100620.03;;;12.72;91.43
59767;BME280;46248;58.364;25.582;2022-10-16T09:59:12;100626.81;;;12.91;91.07
59767;BME280;46248;58.364;25.582;2022-10-16T10:02:35;100628.53;;;13.06;90.14
59767;BME280;46248;58.364;25.582;2022-10-16T10:05:59;100619.44;;;13.12;89.89
59767;BME280;46248;58.364;25.582;2022-10-16T10:09:23;100617.88;;;13.23;88.72
59767;BME280;46248;58.364;25.582;2022-10-16T10:12:47;100618.56;;;13.41;88.45
59767;BME280;46248;58.364;25.582;2022-10-16T10:16:09;100622.88;;;13.57;88.38
59767;BME280;46248;58.364;25.582;2022-10-16T10:19:38;100589.63;;;13.56;87.74
59767;BME280;46248;58.364;25.582;2022-10-16T10:23:00;100611.25;;;13.88;86.37
59767;BME280;46248;58.364;25.582;2022-10-16T10:26:24;100609.75;;;13.98;85.27
59767;BME280;46248;58.364;25.582;2022-10-16T10:29:54;100608.41;;;14.05;85.33
59767;BME280;46248;58.364;25.582;2022-10-16T10:33:26;100603.88;;;14.07;85.37
59767;BME280;46248;58.364;25.582;2022-10-16T10:36:54;100609.22;;;14.20;85.00
59767;BME280;46248;58.364;25.582;2022-10-16T10:40:33;100593.09;;;14.25;84.46
59767;BME280;46248;58.364;25.582;2022-10-16T10:44:03;100605.25;;;14.40;84.02
59767;BME280;46248;58.364;25.582;2022-10-16T10:47:38;100596.56;;;14.52;83.28
59767;BME280;46248;58.364;25.582;2022-10-16T10:51:08;100584.91;;;14.56;82.95
59767;BME280;46248;58.364;25.582;2022-10-16T10:54:36;100591.63;;;14.60;82.76
59767;BME280;46248;58.364;25.582;2022-10-16T10:58:21;100593.00;;;14.53;81.91
59767;BME280;46248;58.364;25.582;2022-10-16T11:01:55;100594.81;;;14.38;82.34
59767;BME280;46248;58.364;25.582;2022-10-16T11:05:44;100580.69;;;14.27;82.55
59767;BME280;46248;58.364;25.582;2022-10-16T11:09:09;100579.69;;;14.15;83.32
59767;BME280;46248;58.364;25.582;2022-10-16T11:12:37;100593.25;;;14.09;83.32
59767;BME280;46248;58.364;25.582;2022-10-16T11:16:05;100598.91;;;14.03;83.70
59767;BME280;46248;58.364;25.582;2022-10-16T11:19:41;100586.53;;;13.90;84.08
59767;BME280;46248;58.364;25.582;2022-10-16T11:23:10;100597.50;;;13.97;83.99
59767;BME280;46248;58.364;25.582;2022-10-16T11:26:36;100591.03;;;13.88;84.19
59767;BME280;46248;58.364;25.582;2022-10-16T11:30:04;100598.53;;;13.94;84.28
59767;BME280;46248;58.364;25.582;2022-10-16T11:33:32;100597.81;;;13.92;84.76
59767;BME280;46248;58.364;25.582;2022-10-16T11:37:02;100601.69;;;13.87;84.51
59767;BME280;46248;58.364;25.582;2022-10-16T11:40:31;100580.19;;;13.80;84.94
59767;BME280;46248;58.364;25.582;2022-10-16T11:44:03;100589.84;;;13.80;84.90
59767;BME280;46248;58.364;25.582;2022-10-16T11:47:34;100590.91;;;13.77;84.98
59767;BME280;46248;58.364;25.582;2022-10-16T11:51:21;100592.22;;;13.70;85.16
59767;BME280;46248;58.364;25.582;2022-10-16T11:54:49;100591.69;;;13.65;85.22
59767;BME280;46248;58.364;25.582;2022-10-16T11:58:21;100597.41;;;13.57;85.61
59767;BME280;46248;58.364;25.582;2022-10-16T12:01:47;100594.31;;;13.50;86.22
59767;BME280;46248;58.364;25.582;2022-10-16T12:05:19;100590.19;;;13.46;86.09
59767;BME280;46248;58.364;25.582;2022-10-16T12:08:44;100594.78;;;13.43;86.13
59767;BME280;46248;58.364;25.582;2022-10-16T12:12:24;100567.56;;;13.29;86.69
59767;BME280;46248;58.364;25.582;2022-10-16T12:20:01;100579.38;;;13.37;87.77
59767;BME280;46248;58.364;25.582;2022-10-16T12:23:37;100564.81;;;13.31;88.46
59767;BME280;46248;58.364;25.582;2022-10-16T12:27:01;100570.19;;;13.29;88.78
59767;BME280;46248;58.364;25.582;2022-10-16T12:30:24;100570.28;;;13.28;89.17
59767;BME280;46248;58.364;25.582;2022-10-16T12:33:57;100573.00;;;13.26;89.47
59767;BME280;46248;58.364;25.582;2022-10-16T12:37:24;100552.59;;;13.16;89.44
59767;BME280;46248;58.364;25.582;2022-10-16T12:40:56;100565.97;;;13.27;89.88
59767;BME280;46248;58.364;25.582;2022-10-16T12:44:23;100568.84;;;13.22;90.50
59767;BME280;46248;58.364;25.582;2022-10-16T12:47:49;100540.84;;;13.07;90.89
59767;BME280;46248;58.364;25.582;2022-10-16T12:51:12;100553.66;;;13.13;91.30
59767;BME280;46248;58.364;25.582;2022-10-16T12:54:44;100555.50;;;13.11;91.42
59767;BME280;46248;58.364;25.582;2022-10-16T12:58:18;100555.50;;;13.11;91.60
59767;BME280;46248;58.364;25.582;2022-10-16T13:01:56;100541.97;;;13.03;91.96
59767;BME280;46248;58.364;25.582;2022-10-16T13:05:32;100543.78;;;13.02;91.81
59767;BME280;46248;58.364;25.582;2022-10-16T13:09:07;100539.53;;;13.00;92.21
59767;BME280;46248;58.364;25.582;2022-10-16T13:12:51;100521.34;;;12.97;92.20
59767;BME280;46248;58.364;25.582;2022-10-16T13:16:23;100527.53;;;12.96;92.28
59767;BME280;46248;58.364;25.582;2022-10-16T13:19:55;100533.34;;;13.01;92.72
59767;BME280;46248;58.364;25.582;2022-10-16T13:23:23;100525.63;;;12.98;92.53
59767;BME280;46248;58.364;25.582;2022-10-16T13:26:54;100523.19;;;12.95;93.05
59767;BME280;46248;58.364;25.582;2022-10-16T13:30:22;100528.00;;;13.02;92.84
59767;BME280;46248;58.364;25.582;2022-10-16T13:33:52;100539.16;;;13.06;92.91
59767;BME280;46248;58.364;25.582;2022-10-16T13:37:20;100529.41;;;13.08;92.98
59767;BME280;46248;58.364;25.582;2022-10-16T13:40:51;100531.00;;;13.11;92.88
59767;BME280;46248;58.364;25.582;2022-10-16T13:44:16;100531.94;;;13.10;92.71
59767;BME280;46248;58.364;25.582;2022-10-16T13:47:41;100524.16;;;13.08;92.51
59767;BME280;46248;58.364;25.582;2022-10-16T13:51:06;100516.53;;;13.03;92.75
59767;BME280;46248;58.364;25.582;2022-10-16T13:54:29;100521.41;;;13.10;92.40
59767;BME280;46248;58.364;25.582;2022-10-16T13:58:17;100519.94;;;13.05;92.66
59767;BME280;46248;58.364;25.582;2022-10-16T14:01:41;100517.31;;;13.05;92.76
59767;BME280;46248;58.364;25.582;2022-10-16T14:05:08;100520.00;;;13.04;92.48
59767;BME280;46248;58.364;25.582;2022-10-16T14:12:18;100520.88;;;13.04;92.31
59767;BME280;46248;58.364;25.582;2022-10-16T14:15:46;100521.72;;;13.05;92.30
59767;BME280;46248;58.364;25.582;2022-10-16T14:19:17;100521.78;;;13.03;92.46
59767;BME280;46248;58.364;25.582;2022-10-16T14:22:42;100522.81;;;13.01;92.40
59767;BME280;46248;58.364;25.582;2022-10-16T14:26:13;100520.31;;;12.99;92.62
59767;BME280;46248;58.364;25.582;2022-10-16T14:29:35;100535.13;;;13.00;92.53
59767;BME280;46248;58.364;25.582;2022-10-16T14:32:58;100518.72;;;12.97;92.36
59767;BME280;46248;58.364;25.582;2022-10-16T14:36:22;100524.81;;;12.97;92.41
59767;BME280;46248;58.364;25.582;2022-10-16T14:39:50;100518.72;;;12.97;92.88
59767;BME280;46248;58.364;25.582;2022-10-16T14:43:20;100522.28;;;12.96;92.43
59767;BME280;46248;58.364;25.582;2022-10-16T14:46:43;100520.56;;;12.95;92.98
59767;BME280;46248;58.364;25.582;2022-10-16T14:50:08;100523.50;;;12.90;93.61
59767;BME280;46248;58.364;25.582;2022-10-16T14:53:30;100512.53;;;12.83;94.01
59767;BME280;46248;58.364;25.582;2022-10-16T14:56:55;100517.59;;;12.87;94.34
59767;BME280;46248;58.364;25.582;2022-10-16T15:00:21;100517.66;;;12.85;94.64
59767;BME280;46248;58.364;25.582;2022-10-16T15:03:44;100515.34;;;12.80;95.03
59767;BME280;46248;58.364;25.582;2022-10-16T15:07:07;100509.59;;;12.74;95.63
59767;BME280;46248;58.364;25.582;2022-10-16T15:10:29;100511.28;;;12.75;95.80
59767;BME280;46248;58.364;25.582;2022-10-16T15:13:53;100500.56;;;12.64;96.46
59767;BME280;46248;58.364;25.582;2022-10-16T15:17:16;100515.19;;;12.68;96.15
59767;BME280;46248;58.364;25.582;2022-10-16T15:20:41;100510.72;;;12.70;96.92
59767;BME280;46248;58.364;25.582;2022-10-16T15:24:08;100480.41;;;12.50;96.74
59767;BME280;46248;58.364;25.582;2022-10-16T15:27:30;100515.50;;;12.63;97.46
59767;BME280;46248;58.364;25.582;2022-10-16T15:31:01;100497.84;;;12.51;97.17
59767;BME280;46248;58.364;25.582;2022-10-16T15:34:26;100501.53;;;12.63;97.88
59767;BME280;46248;58.364;25.582;2022-10-16T15:37:48;100496.53;;;12.58;97.89
59767;BME280;46248;58.364;25.582;2022-10-16T15:41:10;100494.09;;;12.55;97.78
59767;BME280;46248;58.364;25.582;2022-10-16T15:44:32;100499.81;;;12.61;97.62
59767;BME280;46248;58.364;25.582;2022-10-16T15:47:56;100499.72;;;12.63;97.56
59767;BME280;46248;58.364;25.582;2022-10-16T15:51:18;100496.34;;;12.61;97.45
59767;BME280;46248;58.364;25.582;2022-10-16T15:54:40;100472.16;;;12.56;97.55
59767;BME280;46248;58.364;25.582;2022-10-16T15:58:01;100483.31;;;12.59;97.84
59767;BME280;46248;58.364;25.582;2022-10-16T16:01:23;100462.28;;;12.45;97.65
59767;BME280;46248;58.364;25.582;2022-10-16T16:04:47;100488.28;;;12.64;97.90
59767;BME280;46248;58.364;25.582;2022-10-16T16:08:09;100479.66;;;12.62;98.03
59767;BME280;46248;58.364;25.582;2022-10-16T16:11:31;100476.16;;;12.61;97.88
59767;BME280;46248;58.364;25.582;2022-10-16T16:14:57;100438.94;;;12.41;98.23
59767;BME280;46248;58.364;25.582;2022-10-16T16:18:25;100433.59;;;12.42;97.78
59767;BME280;46248;58.364;25.582;2022-10-16T16:21:48;100463.22;;;12.58;98.04
59767;BME280;46248;58.364;25.582;2022-10-16T16:25:10;100454.03;;;12.51;98.16
59767;BME280;46248;58.364;25.582;2022-10-16T16:28:33;100456.28;;;12.57;98.39
59767;BME280;46248;58.364;25.582;2022-10-16T16:31:55;100455.53;;;12.55;98.54
59767;BME280;46248;58.364;25.582;2022-10-16T16:35:19;100451.22;;;12.54;98.86
59767;BME280;46248;58.364;25.582;2022-10-16T16:38:42;100444.28;;;12.53;98.59
59767;BME280;46248;58.364;25.582;2022-10-16T16:42:04;100433.78;;;12.53;98.97
59767;BME280;46248;58.364;25.582;2022-10-16T16:45:27;100439.69;;;12.57;98.82
59767;BME280;46248;58.364;25.582;2022-10-16T16:48:49;100431.88;;;12.55;98.92
59767;BME280;46248;58.364;25.582;2022-10-16T16:52:13;100439.78;;;12.55;99.18
59767;BME280;46248;58.364;25.582;2022-10-16T16:55:36;100442.41;;;12.55;99.15
59767;BME280;46248;58.364;25.582;2022-10-16T16:58:58;100436.41;;;12.53;99.63
59767;BME280;46248;58.364;25.582;2022-10-16T17:02:20;100428.41;;;12.55;99.52
59767;BME280;46248;58.364;25.582;2022-10-16T17:05:41;100440.72;;;12.54;100.00
59767;BME280;46248;58.364;25.582;2022-10-16T17:09:05;100433.78;;;12.53;100.00
59767;BME280;46248;58.364;25.582;2022-10-16T17:12:28;100433.88;;;12.52;100.00
59767;BME280;46248;58.364;25.582;2022-10-16T17:15:51;100424.13;;;12.54;100.00
59767;BME280;46248;58.364;25.582;2022-10-16T17:19:15;100418.75;;;12.55;100.00
59767;BME280;46248;58.364;25.582;2022-10-16T17:22:38;100412.84;;;12.52;100.00
59767;BME280;46248;58.364;25.582;2022-10-16T17:26:03;100422.16;;;12.57;100.00
59767;BME280;46248;58.364;25.582;2022-10-16T17:29:27;100404.06;;;12.53;100.00
59767;BME280;46248;58.364;25.582;2022-10-16T17:32:49;100415.03;;;12.59;99.85
59767;BME280;46248;58.364;25.582;2022-10-16T17:36:11;100419.25;;;12.62;100.00
59767;BME280;46248;58.364;25.582;2022-10-16T17:39:34;100414.00;;;12.62;100.00
59767;BME280;46248;58.364;25.582;2022-10-16T17:46:22;100411.44;;;12.60;100.00
59767;BME280;46248;58.364;25.582;2022-10-16T17:53:35;100422.53;;;12.66;99.57
59767;BME280;46248;58.364;25.582;2022-10-16T17:56:57;100420.75;;;12.66;99.93
59767;BME280;46248;58.364;25.582;2022-10-16T18:00:19;100420.75;;;12.66;100.00
59767;BME280;46248;58.364;25.582;2022-10-16T18:03:43;100390.53;;;12.45;100.00
59767;BME280;46248;58.364;25.582;2022-10-16T18:07:05;100420.81;;;12.65;100.00
59767;BME280;46248;58.364;25.582;2022-10-16T18:15:29;100421.56;;;12.67;100.00
59767;BME280;46248;58.364;25.582;2022-10-16T18:18:56;100374.13;;;12.41;100.00
59767;BME280;46248;58.364;25.582;2022-10-16T18:22:18;100411.00;;;12.68;100.00
59767;BME280;46248;58.364;25.582;2022-10-16T18:25:40;100412.56;;;12.71;100.00
59767;BME280;46248;58.364;25.582;2022-10-16T18:29:11;100382.47;;;12.62;100.00
59767;BME280;46248;58.364;25.582;2022-10-16T18:32:33;100407.97;;;12.74;100.00
59767;BME280;46248;58.364;25.582;2022-10-16T18:35:59;100394.94;;;12.73;100.00
59767;BME280;46248;58.364;25.582;2022-10-16T18:39:21;100406.09;;;12.76;99.99
59767;BME280;46248;58.364;25.582;2022-10-16T18:42:44;100415.69;;;12.77;99.96
59767;BME280;46248;58.364;25.582;2022-10-16T18:46:07;100400.09;;;12.74;99.98
59767;BME280;46248;58.364;25.582;2022-10-16T18:49:30;100395.56;;;12.76;99.71
59767;BME280;46248;58.364;25.582;2022-10-16T18:52:53;100415.50;;;12.80;99.84
59767;BME280;46248;58.364;25.582;2022-10-16T18:56:18;100395.88;;;12.72;99.49
59767;BME280;46248;58.364;25.582;2022-10-16T18:59:39;100410.22;;;12.80;99.88
59767;BME280;46248;58.364;25.582;2022-10-16T19:03:01;100426.19;;;12.77;99.17
59767;BME280;46248;58.364;25.582;2022-10-16T19:06:24;100439.13;;;12.80;99.12
59767;BME280;46248;58.364;25.582;2022-10-16T19:09:48;100446.25;;;12.78;99.01
59767;BME280;46248;58.364;25.582;2022-10-16T19:13:10;100436.88;;;12.74;98.71
59767;BME280;46248;58.364;25.582;2022-10-16T19:16:34;100439.59;;;12.73;97.69